sensor_id;sensor_type;location;lat;lon;timestamp;pressure;altitude;pressure_sealevel;temperature;humidity
59009;BME280;44794;42.652;23.318;2022-09-27T00:00:59;93522.38;;;14.46;100.00
59009;BME280;44794;42.652;23.318;2022-09-27T00:03:25;93531.84;;;14.39;100.00
59009;BME280;44794;42.652;23.318;2022-09-27T00:06:25;93544.56;;;14.34;100.00
59009;BME280;44794;42.652;23.318;2022-09-27T00:08:51;93548.16;;;14.33;100.00
59009;BME280;44794;42.652;23.318;2022-09-27T00:13:54;93536.22;;;14.23;100.00
59009;BME280;44794;42.652;23.318;2022-09-27T00:16:21;93548.91;;;14.18;100.00
59009;BME280;44794;42.652;23.318;2022-09-27T00:18:47;93541.75;;;14.20;100.00
59009;BME280;44794;42.652;23.318;2022-09-27T00:21:13;93542.88;;;14.18;100.00
59009;BME280;44794;42.652;23.318;2022-09-27T00:23:39;93544.53;;;14.27;100.00
59009;BME280;44794;42.652;23.318;2022-09-27T00:26:06;93543.88;;;14.25;100.00
59009;BME280;44794;42.652;23.318;2022-09-27T00:28:32;93538.97;;;14.22;100.00
59009;BME280;44794;42.652;23.318;2022-09-27T00:30:58;93530.75;;;14.09;100.00
59009;BME280;44794;42.652;23.318;2022-09-27T00:33:25;93535.34;;;14.07;100.00
59009;BME280;44794;42.652;23.318;2022-09-27T00:35:50;93535.97;;;14.09;100.00
59009;BME280;44794;42.652;23.318;2022-09-27T00:38:16;93524.78;;;14.16;100.00
59009;BME280;44794;42.652;23.318;2022-09-27T00:40:42;93525.09;;;14.21;100.00
59009;BME280;44794;42.652;23.318;2022-09-27T00:43:20;93528.84;;;14.19;100.00
59009;BME280;44794;42.652;23.318;2022-09-27T00:45:54;93514.50;;;14.23;100.00
59009;BME280;44794;42.652;23.318;2022-09-27T00:48:25;93515.47;;;14.29;100.00
59009;BME280;44794;42.652;23.318;2022-09-27T00:50:55;93517.44;;;14.35;100.00
59009;BME280;44794;42.652;23.318;2022-09-27T00:55:57;93510.44;;;14.36;100.00
59009;BME280;44794;42.652;23.318;2022-09-27T00:58:31;93495.44;;;14.30;100.00
59009;BME280;44794;42.652;23.318;2022-09-27T01:01:03;93496.22;;;14.23;100.00
59009;BME280;44794;42.652;23.318;2022-09-27T01:03:50;93505.03;;;14.29;100.00
59009;BME280;44794;42.652;23.318;2022-09-27T01:06:18;93486.75;;;14.22;100.00
59009;BME280;44794;42.652;23.318;2022-09-27T01:08:44;93487.72;;;14.13;100.00
59009;BME280;44794;42.652;23.318;2022-09-27T01:28:11;93483.25;;;13.97;100.00
59009;BME280;44794;42.652;23.318;2022-09-27T01:30:49;93472.97;;;13.96;100.00
59009;BME280;44794;42.652;23.318;2022-09-27T01:36:06;93472.13;;;13.87;100.00
59009;BME280;44794;42.652;23.318;2022-09-27T01:43:55;93460.06;;;13.86;100.00
59009;BME280;44794;42.652;23.318;2022-09-27T01:46:42;93478.50;;;13.85;100.00
59009;BME280;44794;42.652;23.318;2022-09-27T01:49:16;93492.53;;;13.92;100.00
59009;BME280;44794;42.652;23.318;2022-09-27T01:51:56;93475.41;;;13.89;100.00
59009;BME280;44794;42.652;23.318;2022-09-27T01:54:34;93478.53;;;13.93;100.00
59009;BME280;44794;42.652;23.318;2022-09-27T01:57:02;93471.19;;;13.96;100.00
59009;BME280;44794;42.652;23.318;2022-09-27T01:59:46;93462.38;;;14.05;100.00
59009;BME280;44794;42.652;23.318;2022-09-27T02:02:15;93451.78;;;14.07;100.00
59009;BME280;44794;42.652;23.318;2022-09-27T02:04:43;93449.66;;;14.02;100.00
59009;BME280;44794;42.652;23.318;2022-09-27T02:07:50;93457.47;;;13.94;100.00
59009;BME280;44794;42.652;23.318;2022-09-27T02:10:23;93449.16;;;13.99;100.00
59009;BME280;44794;42.652;23.318;2022-09-27T02:15:41;93419.13;;;13.95;100.00
59009;BME280;44794;42.652;23.318;2022-09-27T02:18:14;93416.84;;;13.92;100.00
59009;BME280;44794;42.652;23.318;2022-09-27T02:20:48;93440.38;;;14.00;100.00
59009;BME280;44794;42.652;23.318;2022-09-27T02:25:57;93410.00;;;13.99;100.00
59009;BME280;44794;42.652;23.318;2022-09-27T02:28:35;93378.00;;;13.73;100.00
59009;BME280;44794;42.652;23.318;2022-09-27T02:31:04;93393.03;;;13.79;100.00
59009;BME280;44794;42.652;23.318;2022-09-27T02:36:07;93366.44;;;13.83;100.00
59009;BME280;44794;42.652;23.318;2022-09-27T02:38:33;93367.91;;;13.78;100.00
59009;BME280;44794;42.652;23.318;2022-09-27T02:40:59;93366.59;;;13.82;100.00
59009;BME280;44794;42.652;23.318;2022-09-27T02:43:28;93380.78;;;13.79;100.00
59009;BME280;44794;42.652;23.318;2022-09-27T02:46:18;93378.03;;;13.89;100.00
59009;BME280;44794;42.652;23.318;2022-09-27T02:59:47;93396.47;;;13.87;100.00
59009;BME280;44794;42.652;23.318;2022-09-27T03:02:34;93391.53;;;13.84;100.00
59009;BME280;44794;42.652;23.318;2022-09-27T03:05:06;93380.63;;;13.89;100.00
59009;BME280;44794;42.652;23.318;2022-09-27T03:07:33;93366.94;;;13.95;100.00
59009;BME280;44794;42.652;23.318;2022-09-27T03:09:59;93350.28;;;13.96;100.00
59009;BME280;44794;42.652;23.318;2022-09-27T03:12:24;93344.75;;;13.99;100.00
59009;BME280;44794;42.652;23.318;2022-09-27T03:14:56;93340.69;;;13.96;100.00
59009;BME280;44794;42.652;23.318;2022-09-27T03:17:22;93330.06;;;13.90;100.00
59009;BME280;44794;42.652;23.318;2022-09-27T03:19:48;93336.25;;;13.81;100.00
59009;BME280;44794;42.652;23.318;2022-09-27T03:22:14;93338.88;;;13.89;100.00
59009;BME280;44794;42.652;23.318;2022-09-27T03:24:40;93319.31;;;13.93;100.00
59009;BME280;44794;42.652;23.318;2022-09-27T03:27:05;93320.94;;;13.94;100.00
59009;BME280;44794;42.652;23.318;2022-09-27T03:29:31;93325.03;;;13.96;100.00
59009;BME280;44794;42.652;23.318;2022-09-27T03:31:57;93320.28;;;14.00;100.00
59009;BME280;44794;42.652;23.318;2022-09-27T03:34:22;93322.72;;;14.01;100.00
59009;BME280;44794;42.652;23.318;2022-09-27T03:36:48;93323.22;;;14.05;100.00
59009;BME280;44794;42.652;23.318;2022-09-27T03:39:14;93330.88;;;13.90;100.00
59009;BME280;44794;42.652;23.318;2022-09-27T03:41:39;93316.19;;;13.97;100.00
59009;BME280;44794;42.652;23.318;2022-09-27T03:44:06;93311.16;;;13.88;100.00
59009;BME280;44794;42.652;23.318;2022-09-27T03:46:31;93303.31;;;13.96;100.00
59009;BME280;44794;42.652;23.318;2022-09-27T03:48:57;93294.84;;;13.86;100.00
59009;BME280;44794;42.652;23.318;2022-09-27T03:51:22;93296.16;;;13.82;100.00
59009;BME280;44794;42.652;23.318;2022-09-27T03:53:48;93311.50;;;13.85;100.00
59009;BME280;44794;42.652;23.318;2022-09-27T03:56:13;93314.72;;;13.87;100.00
59009;BME280;44794;42.652;23.318;2022-09-27T03:58:39;93324.84;;;13.82;100.00
59009;BME280;44794;42.652;23.318;2022-09-27T04:01:04;93315.06;;;13.92;100.00
59009;BME280;44794;42.652;23.318;2022-09-27T04:03:30;93318.19;;;13.95;100.00
59009;BME280;44794;42.652;23.318;2022-09-27T04:05:55;93307.38;;;13.98;100.00
59009;BME280;44794;42.652;23.318;2022-09-27T04:08:21;93296.16;;;13.98;100.00
59009;BME280;44794;42.652;23.318;2022-09-27T04:10:47;93302.66;;;13.94;100.00
59009;BME280;44794;42.652;23.318;2022-09-27T04:13:13;93297.44;;;14.02;100.00
59009;BME280;44794;42.652;23.318;2022-09-27T04:15:38;93297.44;;;14.02;100.00
59009;BME280;44794;42.652;23.318;2022-09-27T04:18:05;93297.13;;;14.05;100.00
59009;BME280;44794;42.652;23.318;2022-09-27T04:20:30;93297.78;;;13.99;100.00
59009;BME280;44794;42.652;23.318;2022-09-27T04:22:56;93299.06;;;14.03;100.00
59009;BME280;44794;42.652;23.318;2022-09-27T04:25:21;93300.38;;;14.07;100.00
59009;BME280;44794;42.652;23.318;2022-09-27T04:27:47;93299.25;;;14.09;100.00
59009;BME280;44794;42.652;23.318;2022-09-27T04:30:14;93291.72;;;14.06;100.00
59009;BME280;44794;42.652;23.318;2022-09-27T04:32:41;93284.06;;;13.97;100.00
59009;BME280;44794;42.652;23.318;2022-09-27T04:35:07;93285.22;;;13.94;100.00
59009;BME280;44794;42.652;23.318;2022-09-27T04:37:51;93303.00;;;13.91;100.00
59009;BME280;44794;42.652;23.318;2022-09-27T04:40:17;93281.63;;;13.95;100.00
59009;BME280;44794;42.652;23.318;2022-09-27T04:42:43;93280.66;;;13.96;100.00
59009;BME280;44794;42.652;23.318;2022-09-27T04:45:09;93284.06;;;13.97;100.00
59009;BME280;44794;42.652;23.318;2022-09-27T04:47:36;93297.13;;;14.05;100.00
59009;BME280;44794;42.652;23.318;2022-09-27T04:50:01;93316.69;;;14.09;100.00
59009;BME280;44794;42.652;23.318;2022-09-27T04:52:26;93319.31;;;14.17;100.00
59009;BME280;44794;42.652;23.318;2022-09-27T04:54:52;93311.16;;;14.20;100.00
59009;BME280;44794;42.652;23.318;2022-09-27T04:57:17;93313.44;;;14.15;100.00
59009;BME280;44794;42.652;23.318;2022-09-27T04:59:43;93312.81;;;14.21;100.00
59009;BME280;44794;42.652;23.318;2022-09-27T05:02:08;93313.44;;;14.23;100.00
59009;BME280;44794;42.652;23.318;2022-09-27T05:04:34;93299.38;;;14.08;100.00
59009;BME280;44794;42.652;23.318;2022-09-27T05:06:59;93299.41;;;14.16;100.00
59009;BME280;44794;42.652;23.318;2022-09-27T05:09:25;93300.38;;;14.23;100.00
59009;BME280;44794;42.652;23.318;2022-09-27T05:11:50;93294.84;;;14.18;100.00
59009;BME280;44794;42.652;23.318;2022-09-27T05:14:16;93296.78;;;14.24;100.00
59009;BME280;44794;42.652;23.318;2022-09-27T05:16:41;93291.25;;;14.27;100.00
59009;BME280;44794;42.652;23.318;2022-09-27T05:19:07;93289.91;;;14.30;100.00
59009;BME280;44794;42.652;23.318;2022-09-27T05:21:32;93292.53;;;14.38;100.00
59009;BME280;44794;42.652;23.318;2022-09-27T05:23:58;93294.47;;;14.44;100.00
59009;BME280;44794;42.652;23.318;2022-09-27T05:26:25;93272.09;;;14.50;100.00
59009;BME280;44794;42.652;23.318;2022-09-27T05:28:50;93288.72;;;14.57;100.00
59009;BME280;44794;42.652;23.318;2022-09-27T05:31:16;93287.56;;;14.59;100.00
59009;BME280;44794;42.652;23.318;2022-09-27T05:33:42;93272.28;;;14.40;100.00
59009;BME280;44794;42.652;23.318;2022-09-27T05:36:08;93285.66;;;14.37;100.00
59009;BME280;44794;42.652;23.318;2022-09-27T05:38:33;93295.44;;;14.43;100.00
59009;BME280;44794;42.652;23.318;2022-09-27T05:41:01;93299.97;;;14.57;100.00
59009;BME280;44794;42.652;23.318;2022-09-27T05:43:27;93303.72;;;14.63;100.00
59009;BME280;44794;42.652;23.318;2022-09-27T05:45:53;93318.06;;;14.67;100.00
59009;BME280;44794;42.652;23.318;2022-09-27T05:48:19;93318.25;;;14.65;100.00
59009;BME280;44794;42.652;23.318;2022-09-27T05:50:44;93309.72;;;14.71;100.00
59009;BME280;44794;42.652;23.318;2022-09-27T05:53:11;93299.13;;;14.73;100.00
59009;BME280;44794;42.652;23.318;2022-09-27T05:55:37;93313.94;;;14.80;100.00
59009;BME280;44794;42.652;23.318;2022-09-27T05:58:05;93306.44;;;14.77;100.00
59009;BME280;44794;42.652;23.318;2022-09-27T06:00:32;93290.16;;;14.67;100.00
59009;BME280;44794;42.652;23.318;2022-09-27T06:03:02;93302.88;;;14.70;100.00
59009;BME280;44794;42.652;23.318;2022-09-27T06:05:29;93316.25;;;14.75;100.00
59009;BME280;44794;42.652;23.318;2022-09-27T06:08:03;93328.66;;;14.81;100.00
59009;BME280;44794;42.652;23.318;2022-09-27T06:10:30;93317.81;;;14.92;100.00
59009;BME280;44794;42.652;23.318;2022-09-27T06:13:00;93315.56;;;14.89;100.00
59009;BME280;44794;42.652;23.318;2022-09-27T06:15:30;93313.09;;;14.88;100.00
59009;BME280;44794;42.652;23.318;2022-09-27T06:17:56;93320.09;;;14.95;100.00
59009;BME280;44794;42.652;23.318;2022-09-27T06:20:23;93317.00;;;14.92;100.00
59009;BME280;44794;42.652;23.318;2022-09-27T06:22:48;93314.56;;;14.90;100.00
59009;BME280;44794;42.652;23.318;2022-09-27T06:25:14;93323.50;;;14.96;100.00
59009;BME280;44794;42.652;23.318;2022-09-27T06:27:39;93315.28;;;15.14;100.00
59009;BME280;44794;42.652;23.318;2022-09-27T06:30:05;93315.09;;;15.24;100.00
59009;BME280;44794;42.652;23.318;2022-09-27T06:32:31;93319.03;;;15.12;100.00
59009;BME280;44794;42.652;23.318;2022-09-27T06:34:57;93326.69;;;15.21;100.00
59009;BME280;44794;42.652;23.318;2022-09-27T06:37:26;93334.00;;;15.34;100.00
59009;BME280;44794;42.652;23.318;2022-09-27T06:39:52;93332.47;;;15.47;100.00
59009;BME280;44794;42.652;23.318;2022-09-27T06:42:18;93332.94;;;15.51;100.00
59009;BME280;44794;42.652;23.318;2022-09-27T06:44:44;93342.41;;;15.52;100.00
59009;BME280;44794;42.652;23.318;2022-09-27T06:47:16;93333.25;;;15.48;100.00
59009;BME280;44794;42.652;23.318;2022-09-27T06:49:42;93336.91;;;15.47;100.00
59009;BME280;44794;42.652;23.318;2022-09-27T06:52:07;93337.97;;;15.52;100.00
59009;BME280;44794;42.652;23.318;2022-09-27T06:54:33;93344.75;;;15.47;100.00
59009;BME280;44794;42.652;23.318;2022-09-27T06:56:58;93347.69;;;15.44;100.00
59009;BME280;44794;42.652;23.318;2022-09-27T06:59:24;93334.28;;;15.47;100.00
59009;BME280;44794;42.652;23.318;2022-09-27T07:02:08;93336.53;;;15.50;100.00
59009;BME280;44794;42.652;23.318;2022-09-27T07:04:33;93336.50;;;15.58;100.00
59009;BME280;44794;42.652;23.318;2022-09-27T07:06:59;93353.31;;;15.63;100.00
59009;BME280;44794;42.652;23.318;2022-09-27T07:09:24;93356.22;;;15.68;100.00
59009;BME280;44794;42.652;23.318;2022-09-27T07:11:50;93350.50;;;15.65;100.00
59009;BME280;44794;42.652;23.318;2022-09-27T07:14:15;93346.25;;;15.64;100.00
59009;BME280;44794;42.652;23.318;2022-09-27T07:16:42;93344.56;;;15.71;100.00
59009;BME280;44794;42.652;23.318;2022-09-27T07:19:07;93359.59;;;15.77;100.00
59009;BME280;44794;42.652;23.318;2022-09-27T07:21:36;93356.50;;;15.73;100.00
59009;BME280;44794;42.652;23.318;2022-09-27T07:24:02;93345.69;;;15.54;100.00
59009;BME280;44794;42.652;23.318;2022-09-27T07:26:27;93346.75;;;15.37;100.00
59009;BME280;44794;42.652;23.318;2022-09-27T07:28:53;93338.59;;;15.32;100.00
59009;BME280;44794;42.652;23.318;2022-09-27T07:31:18;93337.78;;;15.31;100.00
59009;BME280;44794;42.652;23.318;2022-09-27T07:33:44;93334.38;;;15.15;100.00
59009;BME280;44794;42.652;23.318;2022-09-27T07:36:11;93322.41;;;14.90;100.00
59009;BME280;44794;42.652;23.318;2022-09-27T07:38:36;93338.56;;;14.94;100.00
59009;BME280;44794;42.652;23.318;2022-09-27T07:41:10;93347.53;;;14.99;100.00
59009;BME280;44794;42.652;23.318;2022-09-27T07:43:37;93351.44;;;15.03;100.00
59009;BME280;44794;42.652;23.318;2022-09-27T07:46:02;93362.53;;;15.05;100.00
59009;BME280;44794;42.652;23.318;2022-09-27T07:48:28;93362.88;;;15.02;100.00
59009;BME280;44794;42.652;23.318;2022-09-27T07:50:53;93365.69;;;15.01;100.00
59009;BME280;44794;42.652;23.318;2022-09-27T07:53:19;93361.25;;;15.01;100.00
59009;BME280;44794;42.652;23.318;2022-09-27T07:55:52;93359.97;;;14.97;100.00
59009;BME280;44794;42.652;23.318;2022-09-27T07:58:18;93360.94;;;14.96;100.00
59009;BME280;44794;42.652;23.318;2022-09-27T08:00:44;93361.25;;;15.01;100.00
59009;BME280;44794;42.652;23.318;2022-09-27T08:03:12;93363.84;;;15.09;100.00
59009;BME280;44794;42.652;23.318;2022-09-27T08:05:43;93341.47;;;15.06;100.00
59009;BME280;44794;42.652;23.318;2022-09-27T08:08:09;93299.38;;;14.94;100.00
59009;BME280;44794;42.652;23.318;2022-09-27T08:10:35;93293.00;;;14.88;100.00
59009;BME280;44794;42.652;23.318;2022-09-27T08:13:01;93298.25;;;14.88;100.00
59009;BME280;44794;42.652;23.318;2022-09-27T08:15:28;93302.28;;;14.99;100.00
59009;BME280;44794;42.652;23.318;2022-09-27T08:17:55;93309.22;;;15.14;100.00
59009;BME280;44794;42.652;23.318;2022-09-27T08:20:20;93327.81;;;15.27;100.00
59009;BME280;44794;42.652;23.318;2022-09-27T08:22:46;93335.19;;;15.15;100.00
59009;BME280;44794;42.652;23.318;2022-09-27T08:25:11;93332.44;;;15.25;100.00
59009;BME280;44794;42.652;23.318;2022-09-27T08:27:38;93342.84;;;15.33;100.00
59009;BME280;44794;42.652;23.318;2022-09-27T08:30:04;93332.78;;;15.44;100.00
59009;BME280;44794;42.652;23.318;2022-09-27T08:32:29;93320.19;;;15.48;100.00
59009;BME280;44794;42.652;23.318;2022-09-27T08:34:55;93314.06;;;15.63;100.00
59009;BME280;44794;42.652;23.318;2022-09-27T08:37:21;93308.16;;;15.83;100.00
59009;BME280;44794;42.652;23.318;2022-09-27T08:39:47;93299.75;;;16.10;100.00
59009;BME280;44794;42.652;23.318;2022-09-27T08:42:40;93302.06;;;16.50;100.00
59009;BME280;44794;42.652;23.318;2022-09-27T08:45:46;93323.22;;;16.63;100.00
59009;BME280;44794;42.652;23.318;2022-09-27T08:48:04;93329.72;;;16.96;100.00
59009;BME280;44794;42.652;23.318;2022-09-27T08:50:36;93355.22;;;17.02;100.00
59009;BME280;44794;42.652;23.318;2022-09-27T08:53:21;93369.31;;;17.01;99.87
59009;BME280;44794;42.652;23.318;2022-09-27T08:55:52;93380.38;;;17.11;97.37
59009;BME280;44794;42.652;23.318;2022-09-27T08:58:25;93388.81;;;17.35;96.75
59009;BME280;44794;42.652;23.318;2022-09-27T09:00:53;93372.66;;;17.67;95.68
59009;BME280;44794;42.652;23.318;2022-09-27T09:03:24;93373.16;;;18.12;93.98
59009;BME280;44794;42.652;23.318;2022-09-27T09:06:13;93392.88;;;18.43;88.63
59009;BME280;44794;42.652;23.318;2022-09-27T09:33:42;93384.84;;;18.45;88.43
59009;BME280;44794;42.652;23.318;2022-09-27T09:36:24;93382.78;;;18.68;87.33
59009;BME280;44794;42.652;23.318;2022-09-27T09:38:57;93378.75;;;18.92;86.79
59009;BME280;44794;42.652;23.318;2022-09-27T09:41:37;93383.19;;;19.19;85.35
59009;BME280;44794;42.652;23.318;2022-09-27T09:44:26;93388.97;;;19.36;83.43
59009;BME280;44794;42.652;23.318;2022-09-27T09:46:56;93398.50;;;19.37;83.66
59009;BME280;44794;42.652;23.318;2022-09-27T09:49:44;93408.88;;;18.90;84.52
59009;BME280;44794;42.652;23.318;2022-09-27T09:52:19;93391.16;;;18.78;85.59
59009;BME280;44794;42.652;23.318;2022-09-27T09:55:23;93382.94;;;18.60;87.50
59009;BME280;44794;42.652;23.318;2022-09-27T10:00:18;93379.06;;;19.44;86.27
59009;BME280;44794;42.652;23.318;2022-09-27T10:02:46;93398.66;;;19.69;82.31
59009;BME280;44794;42.652;23.318;2022-09-27T10:05:17;93394.13;;;19.50;82.34
59009;BME280;44794;42.652;23.318;2022-09-27T10:07:44;93386.00;;;18.90;84.92
59009;BME280;44794;42.652;23.318;2022-09-27T10:10:14;93399.06;;;18.78;85.30
59009;BME280;44794;42.652;23.318;2022-09-27T10:12:41;93385.47;;;18.74;86.33
59009;BME280;44794;42.652;23.318;2022-09-27T10:15:21;93370.47;;;18.68;87.45
59009;BME280;44794;42.652;23.318;2022-09-27T10:17:49;93374.25;;;18.86;86.19
59009;BME280;44794;42.652;23.318;2022-09-27T10:22:58;93379.47;;;19.07;86.11
59009;BME280;44794;42.652;23.318;2022-09-27T10:25:44;93382.81;;;19.56;86.42
59009;BME280;44794;42.652;23.318;2022-09-27T10:28:28;93381.53;;;19.92;81.36
59009;BME280;44794;42.652;23.318;2022-09-27T10:30:59;93377.75;;;20.01;82.36
59009;BME280;44794;42.652;23.318;2022-09-27T10:33:26;93393.38;;;20.09;79.99
59009;BME280;44794;42.652;23.318;2022-09-27T10:35:52;93386.31;;;20.23;79.18
59009;BME280;44794;42.652;23.318;2022-09-27T10:40:43;93398.19;;;20.85;77.52
59009;BME280;44794;42.652;23.318;2022-09-27T10:43:29;93392.69;;;21.25;75.63
59009;BME280;44794;42.652;23.318;2022-09-27T10:48:33;93363.75;;;21.69;77.09
59009;BME280;44794;42.652;23.318;2022-09-27T10:51:00;93359.91;;;21.52;72.17
59009;BME280;44794;42.652;23.318;2022-09-27T10:53:28;93370.91;;;21.55;73.56
59009;BME280;44794;42.652;23.318;2022-09-27T10:55:55;93346.97;;;21.31;73.99
59009;BME280;44794;42.652;23.318;2022-09-27T10:58:27;93347.19;;;21.23;75.09
59009;BME280;44794;42.652;23.318;2022-09-27T11:03:29;93333.44;;;20.95;77.30
59009;BME280;44794;42.652;23.318;2022-09-27T11:05:56;93337.72;;;20.83;77.15
59009;BME280;44794;42.652;23.318;2022-09-27T11:08:30;93335.44;;;21.06;76.26
59009;BME280;44794;42.652;23.318;2022-09-27T11:13:28;93324.28;;;20.39;77.99
59009;BME280;44794;42.652;23.318;2022-09-27T11:16:03;93328.31;;;20.36;80.09
59009;BME280;44794;42.652;23.318;2022-09-27T11:21:32;93335.06;;;20.83;77.41
59009;BME280;44794;42.652;23.318;2022-09-27T11:25:02;93338.06;;;21.06;76.61
59009;BME280;44794;42.652;23.318;2022-09-27T12:01:52;93273.41;;;21.28;71.55
59009;BME280;44794;42.652;23.318;2022-09-27T12:07:43;93267.88;;;21.92;69.10
59009;BME280;44794;42.652;23.318;2022-09-27T12:10:16;93249.13;;;22.00;68.34
59009;BME280;44794;42.652;23.318;2022-09-27T12:12:45;93257.97;;;22.12;67.93
59009;BME280;44794;42.652;23.318;2022-09-27T12:15:29;93269.72;;;22.54;67.79
59009;BME280;44794;42.652;23.318;2022-09-27T12:18:08;93246.06;;;22.76;64.74
59009;BME280;44794;42.652;23.318;2022-09-27T12:20:36;93260.28;;;22.82;64.82
59009;BME280;44794;42.652;23.318;2022-09-27T12:23:09;93256.31;;;23.15;63.48
59009;BME280;44794;42.652;23.318;2022-09-27T12:25:40;93243.22;;;22.96;63.58
59009;BME280;44794;42.652;23.318;2022-09-27T12:31:01;93210.72;;;22.71;64.22
59009;BME280;44794;42.652;23.318;2022-09-27T12:33:41;93216.75;;;22.78;64.69
59009;BME280;44794;42.652;23.318;2022-09-27T12:36:13;93213.00;;;22.68;63.28
59009;BME280;44794;42.652;23.318;2022-09-27T12:38:51;93207.25;;;22.70;63.88
59009;BME280;44794;42.652;23.318;2022-09-27T12:41:21;93204.09;;;22.80;64.34
59009;BME280;44794;42.652;23.318;2022-09-27T12:43:49;93200.50;;;22.74;60.92
59009;BME280;44794;42.652;23.318;2022-09-27T12:51:52;93196.53;;;23.01;62.15
59009;BME280;44794;42.652;23.318;2022-09-27T13:00:07;93188.34;;;23.09;60.93
59009;BME280;44794;42.652;23.318;2022-09-27T13:13:24;93211.13;;;24.05;49.65
59009;BME280;44794;42.652;23.318;2022-09-27T13:15:55;93209.81;;;24.36;48.53
59009;BME280;44794;42.652;23.318;2022-09-27T13:18:30;93200.63;;;24.62;48.61
59009;BME280;44794;42.652;23.318;2022-09-27T13:20:56;93191.28;;;24.82;46.57
59009;BME280;44794;42.652;23.318;2022-09-27T13:25:58;93201.66;;;25.06;45.07
59009;BME280;44794;42.652;23.318;2022-09-27T13:31:04;93179.94;;;25.09;44.92
59009;BME280;44794;42.652;23.318;2022-09-27T13:33:50;93172.31;;;25.13;46.43
59009;BME280;44794;42.652;23.318;2022-09-27T13:49:42;93216.91;;;25.00;47.33
59009;BME280;44794;42.652;23.318;2022-09-27T13:54:54;93210.44;;;24.61;47.60
59009;BME280;44794;42.652;23.318;2022-09-27T14:00:08;93200.97;;;24.02;49.57
59009;BME280;44794;42.652;23.318;2022-09-27T14:02:38;93186.44;;;23.93;49.94
59009;BME280;44794;42.652;23.318;2022-09-27T14:05:10;93187.22;;;23.93;49.74
59009;BME280;44794;42.652;23.318;2022-09-27T14:07:40;93190.00;;;23.98;50.34
59009;BME280;44794;42.652;23.318;2022-09-27T14:10:13;93193.56;;;23.92;50.07
59009;BME280;44794;42.652;23.318;2022-09-27T14:12:40;93176.84;;;23.92;50.25
59009;BME280;44794;42.652;23.318;2022-09-27T14:15:09;93178.44;;;23.81;50.95
59009;BME280;44794;42.652;23.318;2022-09-27T14:17:42;93171.38;;;23.75;50.54
59009;BME280;44794;42.652;23.318;2022-09-27T14:20:34;93171.94;;;23.77;50.44
59009;BME280;44794;42.652;23.318;2022-09-27T14:23:00;93172.81;;;23.71;50.26
59009;BME280;44794;42.652;23.318;2022-09-27T14:25:26;93174.88;;;23.69;50.71
59009;BME280;44794;42.652;23.318;2022-09-27T14:27:52;93176.03;;;23.62;51.25
59009;BME280;44794;42.652;23.318;2022-09-27T14:30:22;93176.09;;;23.55;51.78
59009;BME280;44794;42.652;23.318;2022-09-27T14:32:50;93167.34;;;23.55;51.75
59009;BME280;44794;42.652;23.318;2022-09-27T14:35:27;93155.38;;;23.35;51.24
59009;BME280;44794;42.652;23.318;2022-09-27T14:38:14;93159.69;;;23.18;52.25
59009;BME280;44794;42.652;23.318;2022-09-27T14:40:43;93168.31;;;23.13;51.60
59009;BME280;44794;42.652;23.318;2022-09-27T14:43:15;93176.19;;;23.20;50.94
59009;BME280;44794;42.652;23.318;2022-09-27T14:45:43;93169.44;;;23.06;51.84
59009;BME280;44794;42.652;23.318;2022-09-27T14:48:38;93156.09;;;22.34;60.00
59009;BME280;44794;42.652;23.318;2022-09-27T14:53:50;93176.84;;;21.82;64.77
59009;BME280;44794;42.652;23.318;2022-09-27T14:56:24;93174.47;;;21.68;65.44
59009;BME280;44794;42.652;23.318;2022-09-27T14:58:58;93170.19;;;21.36;67.89
59009;BME280;44794;42.652;23.318;2022-09-27T15:01:27;93184.81;;;20.88;70.07
59009;BME280;44794;42.652;23.318;2022-09-27T15:03:53;93181.78;;;20.78;70.69
59009;BME280;44794;42.652;23.318;2022-09-27T15:06:20;93184.44;;;20.65;71.90
59009;BME280;44794;42.652;23.318;2022-09-27T15:08:47;93225.66;;;20.53;72.29
59009;BME280;44794;42.652;23.318;2022-09-27T15:11:15;93266.06;;;20.35;73.38
59009;BME280;44794;42.652;23.318;2022-09-27T15:13:42;93283.28;;;19.45;67.97
59009;BME280;44794;42.652;23.318;2022-09-27T15:16:13;93259.06;;;17.79;75.80
59009;BME280;44794;42.652;23.318;2022-09-27T15:18:44;93257.38;;;16.87;83.10
59009;BME280;44794;42.652;23.318;2022-09-27T15:21:26;93248.22;;;16.11;83.82
59009;BME280;44794;42.652;23.318;2022-09-27T15:23:52;93285.97;;;15.79;86.72
59009;BME280;44794;42.652;23.318;2022-09-27T15:26:36;93274.28;;;15.37;88.08
59009;BME280;44794;42.652;23.318;2022-09-27T15:29:02;93259.72;;;15.12;91.24
59009;BME280;44794;42.652;23.318;2022-09-27T15:31:32;93261.22;;;15.07;92.81
59009;BME280;44794;42.652;23.318;2022-09-27T15:33:59;93252.00;;;14.89;92.46
59009;BME280;44794;42.652;23.318;2022-09-27T15:36:58;93258.59;;;14.77;92.57
59009;BME280;44794;42.652;23.318;2022-09-27T15:39:37;93257.50;;;14.63;91.49
59009;BME280;44794;42.652;23.318;2022-09-27T15:44:46;93277.50;;;14.40;91.47
59009;BME280;44794;42.652;23.318;2022-09-27T15:52:49;93213.72;;;14.27;97.97
59009;BME280;44794;42.652;23.318;2022-09-27T15:55:21;93207.69;;;14.27;99.63
59009;BME280;44794;42.652;23.318;2022-09-27T15:58:00;93197.56;;;14.24;100.00
59009;BME280;44794;42.652;23.318;2022-09-27T16:00:27;93184.19;;;14.27;100.00
59009;BME280;44794;42.652;23.318;2022-09-27T16:02:52;93166.88;;;14.33;100.00
59009;BME280;44794;42.652;23.318;2022-09-27T16:05:18;93174.94;;;14.54;100.00
59009;BME280;44794;42.652;23.318;2022-09-27T16:07:44;93203.97;;;14.59;100.00